Time;durP1;ratioP1;P1;durP2;ratioP2;P2;SDS_P1;SDS_P2;PMS_P1;PMS_P2;Temp;Humidity;BMP_temperature;BMP_pressure;BME280_temperature;BME280_humidity;BME280_pressure;Samples;Min_cycle;Max_cycle;Signal;HPM_P1;HPM_P2
2023/06/03 00:02:29;;;;;;;3.53;1.75;;;;;;;9.77;51.75;101653.53;4988335;28;20108;-75
2023/06/03 00:05:00;;;;;;;6.32;1.60;;;;;;;9.74;52.00;101653.66;5011878;28;20097;-75
2023/06/03 00:07:32;;;;;;;3.10;1.60;;;;;;;9.71;52.55;101652.91;4973953;28;20073;-75
2023/06/03 00:10:01;;;;;;;5.55;1.50;;;;;;;9.67;52.04;101656.56;4977768;28;20424;-75
2023/06/03 00:12:28;;;;;;;2.88;1.60;;;;;;;9.61;51.80;101653.25;4986310;28;20260;-75
2023/06/03 00:14:56;;;;;;;3.45;1.70;;;;;;;9.59;52.30;101654.22;4965686;28;20460;-74
2023/06/03 00:17:33;;;;;;;2.63;1.50;;;;;;;9.55;52.76;101655.28;4968328;28;20150;-75
2023/06/03 00:20:09;;;;;;;5.57;1.42;;;;;;;9.52;52.62;101658.88;4981015;28;20583;-76
2023/06/03 00:23:11;;;;;;;4.35;1.30;;;;;;;9.49;52.79;101658.13;4988617;28;20056;-75
2023/06/03 00:25:42;;;;;;;3.83;1.25;;;;;;;9.45;52.85;101651.25;4997776;28;20157;-76
2023/06/03 00:28:13;;;;;;;3.50;1.60;;;;;;;9.40;52.93;101646.19;4969157;28;20073;-75
2023/06/03 00:30:41;;;;;;;3.28;1.33;;;;;;;9.37;53.37;101656.81;4970979;28;20055;-75
2023/06/03 00:33:11;;;;;;;4.60;1.60;;;;;;;9.31;52.66;101657.03;4958580;28;20137;-75
2023/06/03 00:35:41;;;;;;;2.63;1.27;;;;;;;9.26;53.05;101645.84;4985151;28;20097;-77
2023/06/03 00:38:12;;;;;;;3.10;1.40;;;;;;;9.25;53.68;101657.28;4968392;28;20077;-77
2023/06/03 00:40:43;;;;;;;4.13;1.33;;;;;;;9.21;53.41;101659.16;4964199;28;20141;-75
2023/06/03 00:43:14;;;;;;;2.83;1.20;;;;;;;9.19;54.20;101653.09;4996097;28;20062;-76
2023/06/03 00:45:42;;;;;;;3.55;1.35;;;;;;;9.17;54.09;101656.69;4983245;28;20126;-74
2023/06/03 00:48:13;;;;;;;2.30;1.45;;;;;;;9.13;53.85;101654.16;4978680;28;20046;-75
2023/06/03 00:50:41;;;;;;;4.88;1.80;;;;;;;9.11;53.45;101656.00;4969887;28;20043;-74
2023/06/03 00:53:18;;;;;;;3.42;1.38;;;;;;;9.09;53.77;101657.81;5006437;28;20057;-75
2023/06/03 00:55:48;;;;;;;4.45;1.05;;;;;;;9.07;53.88;101651.78;5005645;28;20057;-76
2023/06/03 00:58:18;;;;;;;4.63;1.48;;;;;;;9.06;53.89;101662.34;4980903;28;20038;-73
2023/06/03 01:00:48;;;;;;;4.32;1.40;;;;;;;9.02;54.04;101658.97;4984102;28;20060;-75
2023/06/03 01:03:23;;;;;;;3.03;1.55;;;;;;;9.03;54.58;101663.31;4988477;28;20628;-75
2023/06/03 01:06:15;;;;;;;2.67;1.08;;;;;;;8.98;54.64;101661.75;5016274;28;20066;-74
2023/06/03 01:08:50;;;;;;;5.05;1.80;;;;;;;8.93;54.53;101658.44;4973777;28;20113;-77
2023/06/03 01:11:53;;;;;;;4.78;1.35;;;;;;;8.89;54.15;101665.56;4979711;28;20133;-77
2023/06/03 01:14:40;;;;;;;2.38;1.17;;;;;;;8.85;54.55;101664.81;4985023;28;20696;-76
2023/06/03 01:17:12;;;;;;;6.00;1.42;;;;;;;8.82;54.77;101662.28;4966933;28;20054;-74
2023/06/03 01:19:52;;;;;;;4.72;1.40;;;;;;;8.81;54.09;101659.72;4968908;28;20342;-77
2023/06/03 01:22:26;;;;;;;9.45;2.15;;;;;;;8.79;54.57;101665.03;4986387;28;20046;-76
2023/06/03 01:25:10;;;;;;;4.13;1.98;;;;;;;8.75;54.42;101660.81;4999980;28;20109;-75
2023/06/03 01:27:45;;;;;;;2.00;1.20;;;;;;;8.71;54.51;101668.84;4986435;28;20046;-75
2023/06/03 01:30:23;;;;;;;2.85;1.23;;;;;;;8.67;54.67;101661.97;5013375;28;20488;-77
2023/06/03 01:32:52;;;;;;;3.88;1.35;;;;;;;8.67;54.50;101668.06;4959279;28;20472;-75
2023/06/03 01:35:27;;;;;;;20.90;1.85;;;;;;;8.65;54.56;101674.31;4977790;28;20046;-74
2023/06/03 01:37:56;;;;;;;2.53;1.23;;;;;;;8.62;54.76;101665.59;4955237;28;20158;-75
2023/06/03 01:40:26;;;;;;;3.20;1.40;;;;;;;8.59;54.47;101675.34;4974859;28;20073;-76
2023/06/03 01:42:55;;;;;;;3.38;1.27;;;;;;;8.57;54.56;101671.94;4980964;28;20686;-75
2023/06/03 01:45:34;;;;;;;2.83;1.30;;;;;;;8.54;55.07;101674.66;4979024;28;20056;-76
2023/06/03 01:48:17;;;;;;;2.78;1.40;;;;;;;8.51;54.62;101662.50;4981440;28;20047;-76
2023/06/03 01:50:49;;;;;;;2.72;1.30;;;;;;;8.50;54.39;101673.03;4990024;28;20109;-76
2023/06/03 01:53:24;;;;;;;5.63;1.35;;;;;;;8.47;55.13;101671.38;4992159;28;20558;-75
2023/06/03 01:55:57;;;;;;;3.03;1.38;;;;;;;8.44;54.79;101668.00;4993280;28;20042;-75
2023/06/03 01:58:28;;;;;;;6.47;1.30;;;;;;;8.44;54.98;101671.47;4964588;28;20058;-74
2023/06/03 02:01:04;;;;;;;3.58;1.67;;;;;;;8.41;55.30;101670.72;4967432;28;20459;-75
2023/06/03 02:03:34;;;;;;;3.47;1.23;;;;;;;8.41;54.60;101676.81;4965296;28;20054;-75
2023/06/03 02:06:14;;;;;;;3.58;1.58;;;;;;;8.36;55.32;101671.72;4990488;28;20054;-76
2023/06/03 02:08:41;;;;;;;4.78;1.48;;;;;;;8.33;54.61;101671.81;5000015;28;20584;-76
2023/06/03 02:11:14;;;;;;;3.33;1.45;;;;;;;8.34;54.93;101670.03;4976758;28;20097;-76
2023/06/03 02:13:44;;;;;;;2.28;1.20;;;;;;;8.33;55.00;101671.81;4968201;28;20451;-77
2023/06/03 02:16:17;;;;;;;2.47;1.20;;;;;;;8.31;54.95;101668.38;4990831;28;20054;-76
2023/06/03 02:18:48;;;;;;;4.53;1.17;;;;;;;8.29;54.76;101671.97;4995916;28;20058;-75
2023/06/03 02:24:18;;;;;;;2.42;1.20;;;;;;;8.23;55.38;101672.16;4988471;28;20081;-75
2023/06/03 02:26:52;;;;;;;7.55;1.52;;;;;;;8.21;55.58;101674.81;4965610;28;20050;-75
2023/06/03 02:29:29;;;;;;;3.05;1.60;;;;;;;8.19;55.28;101671.38;4995258;28;20128;-76
2023/06/03 02:32:03;;;;;;;6.47;1.70;;;;;;;8.19;54.75;101671.38;4959152;28;20174;-75
2023/06/03 02:34:32;;;;;;;2.30;0.80;;;;;;;8.18;55.26;101676.69;4960434;28;20057;-74
2023/06/03 02:37:01;;;;;;;1.77;1.08;;;;;;;8.16;55.56;101678.50;4995597;28;20042;-74
2023/06/03 02:39:29;;;;;;;2.72;1.23;;;;;;;8.17;55.43;101680.22;4985360;28;20037;-75
2023/06/03 02:41:58;;;;;;;2.33;1.23;;;;;;;8.16;54.75;101681.13;4966077;28;20137;-77
2023/06/03 02:44:29;;;;;;;4.63;1.65;;;;;;;8.16;55.12;101689.00;5004355;28;20476;-74
2023/06/03 02:47:00;;;;;;;2.20;1.27;;;;;;;8.12;55.77;101681.22;5001037;28;20370;-76
2023/06/03 02:49:28;;;;;;;3.03;1.30;;;;;;;8.12;55.32;101685.63;4984690;28;20186;-76
2023/06/03 02:51:59;;;;;;;2.95;1.52;;;;;;;8.12;55.23;101689.09;4973053;28;20472;-74
2023/06/03 02:54:30;;;;;;;4.30;1.73;;;;;;;8.11;55.66;101682.13;4982154;28;20065;-75
2023/06/03 02:57:01;;;;;;;1.95;1.23;;;;;;;8.12;55.22;101685.63;4983161;28;20082;-74
2023/06/03 02:59:33;;;;;;;4.45;1.10;;;;;;;8.12;54.99;101686.47;4999400;28;20080;-75
2023/06/03 03:02:06;;;;;;;;;;;;;;;8.11;55.02;101686.53;5003414;28;20081;-76
2023/06/03 03:04:36;;;;;;;3.25;1.10;;;;;;;8.09;55.50;101686.56;5006279;28;19957;-74
2023/06/03 03:07:17;;;;;;;1.67;0.88;;;;;;;8.09;55.36;101685.69;4987171;28;20578;-75
2023/06/03 03:09:46;;;;;;;3.25;1.20;;;;;;;8.11;55.41;101683.91;4960298;28;20393;-75
2023/06/03 03:12:16;;;;;;;2.22;0.98;;;;;;;8.10;54.96;101685.69;4997182;28;20066;-76
2023/06/03 03:14:46;;;;;;;2.90;1.10;;;;;;;8.13;55.11;101688.19;4981420;28;20085;-75
2023/06/03 03:17:14;;;;;;;2.83;1.65;;;;;;;8.14;55.29;101683.78;4982145;28;20052;-76
2023/06/03 03:19:46;;;;;;;3.92;1.50;;;;;;;8.18;55.18;101681.94;4971741;28;20054;-76
2023/06/03 03:22:18;;;;;;;2.22;1.00;;;;;;;8.18;54.99;101690.66;5003949;28;20496;-75
2023/06/03 03:24:52;;;;;;;3.30;1.23;;;;;;;8.19;54.77;101683.63;4986279;28;20062;-74
2023/06/03 03:27:25;;;;;;;3.35;1.40;;;;;;;8.22;54.75;101688.81;4962321;28;20528;-75
2023/06/03 03:30:01;;;;;;;4.18;1.30;;;;;;;8.22;54.38;101687.03;5000592;28;20137;-75
2023/06/03 03:32:37;;;;;;;4.80;1.63;;;;;;;8.24;54.58;101690.47;4972130;28;20500;-76
2023/06/03 03:35:40;;;;;;;2.03;1.20;;;;;;;8.27;54.42;101684.25;4997107;28;20133;-77
2023/06/03 03:38:10;;;;;;;2.88;1.30;;;;;;;8.30;54.20;101695.53;4979461;28;20129;-76
2023/06/03 03:40:44;;;;;;;3.67;1.10;;;;;;;8.32;54.64;101687.59;4982061;28;20081;-74
2023/06/03 03:43:19;;;;;;;2.15;1.13;;;;;;;8.35;54.60;101690.13;4978288;28;20528;-76
2023/06/03 03:45:50;;;;;;;3.95;1.23;;;;;;;8.39;53.87;101689.16;4986595;28;20138;-75
2023/06/03 03:48:28;;;;;;;1.73;1.00;;;;;;;8.46;53.70;101695.03;4984509;28;20046;-74
2023/06/03 03:51:03;;;;;;;2.13;1.00;;;;;;;8.48;53.99;101695.84;4995309;28;20046;-74
2023/06/03 03:53:43;;;;;;;2.33;1.13;;;;;;;8.51;53.76;101696.63;4982464;28;20065;-75
2023/06/03 03:56:21;;;;;;;2.85;1.60;;;;;;;8.58;53.79;101699.88;4977108;28;20081;-75
2023/06/03 03:58:56;;;;;;;6.15;1.42;;;;;;;8.61;53.63;101700.66;4992893;28;20042;-77
2023/06/03 04:01:28;;;;;;;2.28;1.08;;;;;;;8.66;53.46;101697.00;4970075;28;20081;-76
2023/06/03 04:03:59;;;;;;;3.80;1.38;;;;;;;8.69;53.59;101710.91;4980391;28;20159;-77
2023/06/03 04:06:36;;;;;;;4.15;1.52;;;;;;;8.73;53.90;101706.38;4978067;28;20092;-74
2023/06/03 04:09:29;;;;;;;3.08;1.45;;;;;;;8.80;53.12;101710.53;5001520;28;20065;-75
2023/06/03 04:12:01;;;;;;;2.38;1.10;;;;;;;8.85;52.83;101713.84;4978890;28;20077;-75
2023/06/03 04:14:45;;;;;;;2.30;1.17;;;;;;;8.91;52.64;101713.63;4991803;28;20404;-75
2023/06/03 04:17:19;;;;;;;4.43;1.60;;;;;;;8.95;52.89;101709.13;4963369;28;20081;-75
2023/06/03 04:19:48;;;;;;;2.97;1.33;;;;;;;8.99;52.69;101705.50;4974430;28;20061;-76
2023/06/03 04:22:23;;;;;;;2.47;1.35;;;;;;;9.04;52.63;101714.91;4953849;28;20057;-74
2023/06/03 04:25:01;;;;;;;2.17;1.33;;;;;;;9.08;53.19;101708.66;4994770;28;20578;-76
2023/06/03 04:27:38;;;;;;;4.07;1.30;;;;;;;9.13;52.98;101717.22;4994261;28;20038;-75
2023/06/03 04:30:07;;;;;;;3.55;1.48;;;;;;;9.16;52.76;101712.78;4957065;28;20595;-76
2023/06/03 04:32:36;;;;;;;5.97;1.58;;;;;;;9.20;52.46;101724.91;4987648;28;20070;-76
2023/06/03 04:35:09;;;;;;;4.53;1.42;;;;;;;9.26;52.85;101729.94;4982185;28;20480;-77
2023/06/03 04:37:39;;;;;;;2.42;1.58;;;;;;;9.25;52.02;101723.81;4984661;28;20077;-75
2023/06/03 04:40:12;;;;;;;2.47;1.50;;;;;;;9.32;52.53;101719.19;4979104;28;20086;-76
2023/06/03 04:42:44;;;;;;;3.60;1.58;;;;;;;9.36;52.61;101719.00;4976148;28;20369;-75
2023/06/03 04:45:28;;;;;;;3.95;1.10;;;;;;;9.44;51.96;101713.50;4982459;28;20088;-76
2023/06/03 04:48:01;;;;;;;4.03;1.55;;;;;;;9.51;51.80;101714.13;4970941;28;20047;-75
2023/06/03 04:50:34;;;;;;;4.47;1.65;;;;;;;9.53;52.04;101713.16;4974910;28;20130;-75
2023/06/03 04:53:04;;;;;;;5.95;1.75;;;;;;;9.61;52.15;101710.25;4980879;28;21615;-75
2023/06/03 04:55:34;;;;;;;3.17;1.60;;;;;;;9.64;52.47;101713.63;4974107;28;20065;-75
2023/06/03 04:58:03;;;;;;;4.65;1.70;;;;;;;9.72;51.85;101710.69;4963113;28;20429;-75
2023/06/03 05:00:34;;;;;;;4.07;1.70;;;;;;;9.83;51.88;101712.91;4964821;28;20041;-74
2023/06/03 05:03:16;;;;;;;3.33;1.42;;;;;;;9.87;51.31;101714.53;4971226;28;20061;-77
2023/06/03 05:05:52;;;;;;;6.72;1.70;;;;;;;9.90;51.42;101712.59;4987892;28;20050;-75
2023/06/03 05:08:23;;;;;;;3.28;1.60;;;;;;;9.96;51.41;101714.16;4967319;28;20081;-76
2023/06/03 05:10:51;;;;;;;4.05;1.67;;;;;;;9.99;51.56;101719.28;4970190;28;20077;-75
2023/06/03 05:13:25;;;;;;;3.03;1.20;;;;;;;10.02;51.23;101719.16;4977968;28;20035;-76
2023/06/03 05:15:55;;;;;;;4.55;1.40;;;;;;;10.06;50.99;101714.66;4997946;28;20085;-75
2023/06/03 05:18:23;;;;;;;3.25;1.48;;;;;;;10.07;51.15;101717.22;4993555;28;20050;-76
2023/06/03 05:20:55;;;;;;;5.15;1.92;;;;;;;10.16;51.58;101718.63;4961151;28;20140;-75
2023/06/03 05:23:28;;;;;;;4.82;1.55;;;;;;;10.25;50.98;101720.91;4963066;28;20112;-76
2023/06/03 05:25:58;;;;;;;13.68;2.15;;;;;;;10.34;51.14;101715.28;4977488;28;20055;-75
2023/06/03 05:28:25;;;;;;;4.00;1.50;;;;;;;10.36;50.83;101721.34;4979282;28;20058;-77
2023/06/03 05:30:56;;;;;;;4.40;1.70;;;;;;;10.39;50.82;101715.94;4957142;28;20046;-76
2023/06/03 05:33:29;;;;;;;3.35;1.50;;;;;;;10.36;50.71;101721.34;4995719;28;20049;-75
2023/06/03 05:36:01;;;;;;;11.75;2.03;;;;;;;10.38;50.79;101718.66;4982416;28;20058;-75
2023/06/03 05:38:35;;;;;;;4.35;1.63;;;;;;;10.44;50.53;101717.53;4970426;28;20136;-76
2023/06/03 05:41:04;;;;;;;6.18;1.90;;;;;;;10.51;50.57;101716.38;4996793;28;20063;-77
2023/06/03 05:43:34;;;;;;;2.63;1.50;;;;;;;10.56;50.28;101710.00;4972068;28;20337;-75
2023/06/03 05:46:04;;;;;;;3.75;1.73;;;;;;;10.61;50.10;101715.94;4979756;28;20141;-74
2023/06/03 05:48:34;;;;;;;4.18;1.83;;;;;;;10.72;50.05;101712.88;4992173;28;20328;-75
2023/06/03 05:51:04;;;;;;;5.53;1.80;;;;;;;10.84;49.89;101709.69;4989775;28;20189;-74
2023/06/03 05:53:32;;;;;;;2.97;1.50;;;;;;;10.99;49.79;101712.63;4997819;28;20077;-75
2023/06/03 05:55:59;;;;;;;11.50;2.05;;;;;;;11.12;49.11;101714.66;4995077;28;20058;-75
2023/06/03 05:58:30;;;;;;;2.45;1.60;;;;;;;11.27;49.05;101705.19;4987741;28;20065;-73
2023/06/03 06:00:58;;;;;;;6.28;1.73;;;;;;;11.43;48.66;101710.63;4989980;28;20117;-75
2023/06/03 06:03:25;;;;;;;3.60;1.55;;;;;;;11.53;48.02;101709.31;4976075;28;20061;-76
2023/06/03 06:05:56;;;;;;;5.75;1.80;;;;;;;11.66;48.17;101706.94;4998745;28;20694;-75
2023/06/03 06:08:27;;;;;;;6.13;1.55;;;;;;;11.74;47.84;101709.22;4996842;28;20061;-75
2023/06/03 06:10:56;;;;;;;2.97;1.42;;;;;;;11.87;47.58;101713.03;4995551;28;20540;-76
2023/06/03 06:13:24;;;;;;;4.95;1.55;;;;;;;12.01;47.33;101710.59;4972944;28;20073;-76
2023/06/03 06:15:57;;;;;;;4.10;1.80;;;;;;;12.13;47.16;101717.94;4987408;28;20054;-75
2023/06/03 06:18:27;;;;;;;4.82;1.65;;;;;;;12.26;46.68;101718.19;4981190;28;20133;-76
2023/06/03 06:20:57;;;;;;;4.78;2.15;;;;;;;12.38;46.32;101722.00;4993909;28;20081;-75
2023/06/03 06:23:25;;;;;;;6.22;2.03;;;;;;;12.48;46.11;101722.44;4985699;28;20058;-75
2023/06/03 06:25:54;;;;;;;4.63;2.08;;;;;;;12.58;45.90;101718.41;4978953;28;20516;-75
2023/06/03 06:28:24;;;;;;;6.53;1.83;;;;;;;12.68;45.31;101725.78;4976187;28;20137;-74
2023/06/03 06:30:59;;;;;;;6.90;2.33;;;;;;;12.76;44.64;101725.41;4980061;28;20058;-74
2023/06/03 06:33:27;;;;;;;5.45;1.77;;;;;;;12.85;45.02;101717.00;4979359;28;20142;-76
2023/06/03 06:36:01;;;;;;;4.53;1.77;;;;;;;12.96;44.63;101724.38;4963298;28;20133;-76
2023/06/03 06:38:29;;;;;;;3.85;1.77;;;;;;;13.05;44.53;101723.91;4995083;28;20125;-76
2023/06/03 06:40:57;;;;;;;6.07;1.95;;;;;;;13.13;44.75;101721.72;4976416;28;20046;-75
2023/06/03 06:43:29;;;;;;;2.92;1.70;;;;;;;13.25;44.53;101716.78;4975067;28;20074;-73
2023/06/03 06:46:04;;;;;;;7.75;1.63;;;;;;;13.39;44.13;101724.84;4976610;28;20096;-75
2023/06/03 06:48:34;;;;;;;3.92;1.60;;;;;;;13.49;43.52;101710.16;4980473;28;20069;-77
2023/06/03 06:51:01;;;;;;;3.28;1.60;;;;;;;13.61;43.47;101711.31;4987543;28;20121;-75
2023/06/03 06:53:29;;;;;;;4.35;2.05;;;;;;;13.72;43.38;101716.00;4992804;28;20140;-75
2023/06/03 06:56:01;;;;;;;3.85;1.85;;;;;;;13.86;42.96;101718.75;4966512;28;20287;-75
2023/06/03 06:58:36;;;;;;;11.35;2.03;;;;;;;14.00;42.56;101718.81;4960274;28;20085;-75
2023/06/03 07:01:10;;;;;;;8.45;2.45;;;;;;;14.13;42.25;101722.50;4956457;28;20500;-75
2023/06/03 07:03:37;;;;;;;5.20;1.55;;;;;;;14.25;42.08;101722.75;4999677;28;20136;-75
2023/06/03 07:06:07;;;;;;;7.90;2.03;;;;;;;14.33;41.72;101723.19;4984458;28;20113;-75
2023/06/03 07:08:37;;;;;;;3.30;1.88;;;;;;;14.45;41.69;101711.84;4983279;28;20038;-76
2023/06/03 07:11:05;;;;;;;3.88;1.88;;;;;;;14.56;41.29;101714.78;4968057;28;20101;-74
2023/06/03 07:13:35;;;;;;;3.03;1.65;;;;;;;14.71;41.27;101714.81;4988270;28;20062;-75
2023/06/03 07:16:02;;;;;;;9.65;1.88;;;;;;;14.89;41.31;101711.94;4973422;28;20078;-75
2023/06/03 07:18:33;;;;;;;10.02;1.98;;;;;;;15.02;41.14;101709.41;4992539;28;20049;-75
2023/06/03 07:21:02;;;;;;;5.70;1.50;;;;;;;15.18;40.94;101707.53;4986887;28;20089;-75
2023/06/03 07:23:30;;;;;;;5.72;1.88;;;;;;;15.32;40.56;101711.16;4979480;28;20049;-74
2023/06/03 07:26:00;;;;;;;3.95;2.05;;;;;;;15.39;40.05;101718.59;4990281;28;20432;-75
2023/06/03 07:28:33;;;;;;;4.65;1.88;;;;;;;15.52;40.00;101725.81;4979078;28;20144;-76
2023/06/03 07:31:05;;;;;;;2.85;1.60;;;;;;;15.65;39.19;101721.50;4960231;28;20149;-75
2023/06/03 07:33:48;;;;;;;4.87;1.50;;;;;;;15.74;38.93;101720.06;4993716;28;20484;-76
2023/06/03 07:36:15;;;;;;;7.45;1.55;;;;;;;15.82;38.77;101718.63;4988681;28;20050;-75
2023/06/03 07:38:53;;;;;;;2.22;1.40;;;;;;;15.87;38.25;101721.84;4973348;28;20504;-75
2023/06/03 07:41:38;;;;;;;8.82;1.70;;;;;;;15.93;37.54;101731.22;5000976;28;20078;-75
2023/06/03 07:44:19;;;;;;;3.33;1.30;;;;;;;15.92;37.34;101721.53;4987669;28;20133;-76
2023/06/03 07:46:54;;;;;;;2.28;1.40;;;;;;;16.06;37.09;101726.81;4970285;28;20092;-75
2023/06/03 07:49:22;;;;;;;2.95;1.60;;;;;;;16.26;37.19;101719.38;4998390;28;20054;-76
2023/06/03 07:51:54;;;;;;;20.75;2.25;;;;;;;16.34;36.99;101709.91;4960730;28;20119;-75
2023/06/03 07:54:22;;;;;;;3.22;1.40;;;;;;;16.42;36.83;101723.56;4960561;28;20051;-76
2023/06/03 07:56:50;;;;;;;8.35;1.90;;;;;;;16.60;36.72;101720.63;4998823;28;20089;-76
2023/06/03 07:59:18;;;;;;;6.63;1.50;;;;;;;16.70;35.97;101724.38;4994586;28;20138;-76
2023/06/03 08:01:48;;;;;;;3.88;1.23;;;;;;;16.78;35.54;101715.94;4997199;28;20543;-75
2023/06/03 08:04:33;;;;;;;3.00;1.52;;;;;;;16.85;35.74;101715.41;5004446;28;20528;-75
2023/06/03 08:07:01;;;;;;;5.28;1.38;;;;;;;16.94;35.63;101711.28;4981743;28;20064;-74
2023/06/03 08:09:32;;;;;;;5.15;1.88;;;;;;;16.92;35.03;101708.72;4991911;28;20116;-75
2023/06/03 08:12:08;;;;;;;5.32;1.20;;;;;;;16.94;34.82;101711.28;4984927;28;20073;-74
2023/06/03 08:14:41;;;;;;;6.15;1.50;;;;;;;17.11;34.92;101710.09;4976490;28;20052;-75
2023/06/03 08:17:13;;;;;;;2.83;1.50;;;;;;;17.25;34.87;101706.50;5002233;28;20065;-75
2023/06/03 08:19:44;;;;;;;4.90;2.20;;;;;;;17.42;34.75;101708.81;4965750;28;20110;-75
2023/06/03 08:22:35;;;;;;;2.33;1.30;;;;;;;17.55;34.10;101711.47;4995217;28;20053;-75
2023/06/03 08:25:05;;;;;;;3.55;1.40;;;;;;;17.65;33.95;101707.19;4995456;28;20137;-75
2023/06/03 08:27:37;;;;;;;3.72;1.42;;;;;;;17.81;34.17;101710.47;4978849;28;20042;-75
2023/06/03 08:30:05;;;;;;;2.20;1.40;;;;;;;17.92;33.41;101713.25;4990238;28;20038;-75
2023/06/03 08:32:33;;;;;;;8.98;1.50;;;;;;;17.82;32.24;101716.66;4976377;28;20065;-75
2023/06/03 08:35:02;;;;;;;3.03;1.50;;;;;;;17.92;33.23;101715.03;4989323;28;20555;-75
2023/06/03 08:37:30;;;;;;;2.90;1.55;;;;;;;18.05;33.13;101709.66;4945119;28;20108;-76
2023/06/03 08:40:01;;;;;;;4.60;1.23;;;;;;;18.12;33.13;101703.78;4975612;28;20050;-75
2023/06/03 08:42:34;;;;;;;3.90;1.13;;;;;;;18.21;33.06;101713.75;4976409;28;20635;-76
2023/06/03 08:45:09;;;;;;;4.97;1.33;;;;;;;18.33;32.99;101708.50;4943797;28;20168;-75
2023/06/03 08:48:04;;;;;;;3.63;1.23;;;;;;;18.50;33.17;101710.72;4997608;28;20939;-75
2023/06/03 08:50:35;;;;;;;5.97;1.52;;;;;;;18.61;32.58;101713.44;4997654;28;20539;-75
2023/06/03 08:53:08;;;;;;;4.10;1.50;;;;;;;18.45;30.94;101712.88;4986321;28;20666;-75
2023/06/03 08:55:37;;;;;;;4.43;1.30;;;;;;;18.32;31.63;101709.44;4961452;28;20068;-74
2023/06/03 08:58:15;;;;;;;7.70;1.38;;;;;;;18.21;31.66;101704.91;4979202;28;20069;-76
2023/06/03 09:00:51;;;;;;;5.18;1.80;;;;;;;18.34;32.49;101713.69;4962029;28;20049;-78
2023/06/03 09:03:22;;;;;;;3.88;1.25;;;;;;;18.55;32.37;101707.72;4965739;28;20542;-76
2023/06/03 09:05:55;;;;;;;5.40;1.45;;;;;;;18.75;32.47;101704.44;4977124;28;20064;-76
2023/06/03 09:08:40;;;;;;;5.78;1.40;;;;;;;19.01;32.61;101701.59;4996086;28;20054;-76
2023/06/03 09:11:10;;;;;;;;;;;;;;;19.16;31.22;101703.06;4971815;28;20935;-75
2023/06/03 09:13:40;;;;;;;6.25;1.42;;;;;;;19.05;30.71;101695.91;4984840;28;19996;-76
2023/06/03 09:16:09;;;;;;;2.72;1.35;;;;;;;19.14;30.85;101697.00;5003172;28;20061;-74
2023/06/03 09:18:39;;;;;;;2.25;1.38;;;;;;;19.18;30.28;101695.75;4983628;28;20076;-75
2023/06/03 09:21:10;;;;;;;2.30;1.23;;;;;;;19.28;30.37;101688.75;4986370;28;20061;-75
2023/06/03 09:23:40;;;;;;;5.32;1.33;;;;;;;19.44;29.90;101699.06;4987400;28;20176;-76
2023/06/03 09:26:33;;;;;;;4.10;1.13;;;;;;;19.61;29.88;101693.25;4970355;28;20072;-74
2023/06/03 09:29:01;;;;;;;5.30;1.27;;;;;;;19.66;29.30;101688.38;4960794;23;20811;-62
2023/06/03 09:31:28;;;;;;;3.70;1.20;;;;;;;19.76;29.42;101696.50;4968183;28;20525;-64
2023/06/03 09:33:55;;;;;;;5.72;1.65;;;;;;;19.88;29.52;101692.84;4973634;28;20129;-63
2023/06/03 09:36:23;;;;;;;5.00;1.27;;;;;;;20.00;29.31;101691.00;4947343;28;20072;-61
2023/06/03 09:38:52;;;;;;;3.13;1.30;;;;;;;19.91;29.00;101679.25;4945702;28;20137;-63
2023/06/03 09:41:29;;;;;;;10.23;1.80;;;;;;;19.86;29.20;101675.25;4956066;28;20476;-64
2023/06/03 09:44:01;;;;;;;6.97;1.42;;;;;;;19.85;29.13;101685.06;4946585;28;20055;-63
2023/06/03 09:46:30;;;;;;;3.60;1.52;;;;;;;19.94;29.04;101678.97;4966261;28;20492;-62
2023/06/03 09:49:17;;;;;;;4.68;1.10;;;;;;;20.08;29.25;101680.50;4960682;28;20061;-63
2023/06/03 09:51:59;;;;;;;5.82;1.50;;;;;;;20.18;28.64;101686.81;4953396;28;20071;-62
2023/06/03 09:54:26;;;;;;;7.55;1.33;;;;;;;20.22;28.74;101684.75;4949892;28;20157;-65
2023/06/03 09:56:53;;;;;;;9.32;1.83;;;;;;;20.30;28.61;101687.63;4953770;28;20057;-64
2023/06/03 09:59:29;;;;;;;4.78;1.27;;;;;;;20.42;29.10;101691.09;4954384;28;20054;-64
2023/06/03 10:01:56;;;;;;;4.65;1.08;;;;;;;20.58;29.16;101688.00;4949677;28;20079;-64
2023/06/03 10:04:37;;;;;;;3.60;1.30;;;;;;;20.79;28.51;101693.38;4956164;28;20051;-63
2023/06/03 10:07:16;;;;;;;4.30;1.70;;;;;;;20.97;28.43;101689.13;4951464;28;20063;-65
2023/06/03 10:09:46;;;;;;;2.53;1.40;;;;;;;21.15;28.10;101687.53;4951657;28;20653;-63
2023/06/03 10:12:15;;;;;;;4.15;1.25;;;;;;;21.26;28.02;101677.72;4952583;28;20057;-65
2023/06/03 10:14:46;;;;;;;4.30;1.60;;;;;;;21.35;27.55;101677.81;4958512;28;20057;-64
2023/06/03 10:17:15;;;;;;;4.75;1.70;;;;;;;21.46;27.99;101684.88;4949823;28;20150;-67
2023/06/03 10:19:44;;;;;;;4.93;1.40;;;;;;;21.53;28.08;101679.84;4961488;28;20079;-63
2023/06/03 10:22:15;;;;;;;4.88;1.23;;;;;;;21.70;27.13;101676.47;4958348;28;20147;-63
2023/06/03 10:24:43;;;;;;;3.38;1.30;;;;;;;21.65;27.04;101674.22;4951409;28;20159;-64
2023/06/03 10:27:11;;;;;;;3.72;1.27;;;;;;;21.72;27.40;101672.69;4937443;28;20051;-65
2023/06/03 10:29:39;;;;;;;4.65;1.30;;;;;;;21.92;26.75;101670.03;4958567;28;20089;-65
2023/06/03 10:32:09;;;;;;;5.85;1.45;;;;;;;21.89;26.65;101673.03;4951522;28;20530;-62
2023/06/03 10:34:40;;;;;;;4.00;1.50;;;;;;;21.93;26.06;101672.59;4950601;28;20142;-64
2023/06/03 10:37:13;;;;;;;3.42;1.33;;;;;;;22.00;25.62;101668.38;4971744;28;20051;-63
2023/06/03 10:39:42;;;;;;;3.20;1.30;;;;;;;22.09;25.89;101666.69;4956408;28;20419;-66
2023/06/03 10:42:10;;;;;;;4.95;1.52;;;;;;;22.29;25.89;101662.22;4951218;28;20146;-64
2023/06/03 10:44:37;;;;;;;2.53;1.10;;;;;;;22.50;26.04;101660.22;4960174;28;20138;-63
2023/06/03 10:47:06;;;;;;;2.00;1.17;;;;;;;22.59;25.24;101655.81;4953121;28;20057;-62
2023/06/03 10:49:43;;;;;;;2.25;1.20;;;;;;;22.71;25.50;101660.06;4950764;28;20694;-64
2023/06/03 10:52:35;;;;;;;7.43;1.98;;;;;;;22.71;25.02;101646.63;4950307;28;20082;-61
2023/06/03 10:55:27;;;;;;;5.47;1.35;;;;;;;22.65;25.23;101655.28;4949574;28;20094;-63
2023/06/03 10:58:05;;;;;;;3.22;1.35;;;;;;;22.58;25.46;101646.09;4946969;28;20059;-62
2023/06/03 11:00:55;;;;;;;4.28;1.60;;;;;;;22.72;25.55;101653.69;4959077;28;20073;-63
2023/06/03 11:03:27;;;;;;;4.07;1.30;;;;;;;22.83;25.64;101649.13;4952961;28;20069;-62
2023/06/03 11:06:25;;;;;;;7.63;1.33;;;;;;;23.02;25.64;101643.75;4946131;28;20050;-65
2023/06/03 11:09:05;;;;;;;6.05;1.40;;;;;;;22.71;24.35;101641.25;4945748;28;20122;-64
2023/06/03 11:12:04;;;;;;;3.85;1.23;;;;;;;22.49;25.14;101645.09;4963901;28;20607;-64
2023/06/03 11:14:38;;;;;;;4.63;1.40;;;;;;;22.35;24.91;101644.72;4968448;28;20166;-62
2023/06/03 11:17:05;;;;;;;7.70;1.58;;;;;;;22.31;25.73;101643.28;4952370;28;20141;-65
2023/06/03 11:19:50;;;;;;;8.30;1.75;;;;;;;22.43;25.57;101652.91;4949440;28;20152;-65
2023/06/03 11:22:29;;;;;;;2.67;1.37;;;;;;;22.26;25.56;101645.56;4959663;28;20154;-61
2023/06/03 11:25:00;;;;;;;5.72;1.70;;;;;;;22.37;25.37;101638.19;4957630;28;20488;-62
2023/06/03 11:27:29;;;;;;;4.93;1.10;;;;;;;22.67;25.28;101639.00;4949026;28;20114;-62
2023/06/03 11:29:57;;;;;;;2.63;1.40;;;;;;;22.99;25.24;101641.34;4951873;28;20041;-61
2023/06/03 11:32:27;;;;;;;2.83;1.17;;;;;;;23.33;25.24;101643.50;4953045;28;20059;-64
2023/06/03 11:35:03;;;;;;;5.80;1.52;;;;;;;23.70;25.01;101638.91;4955324;28;20145;-64
2023/06/03 11:37:40;;;;;;;10.65;1.88;;;;;;;24.04;24.52;101646.31;4952706;28;20450;-64
2023/06/03 11:40:19;;;;;;;3.60;1.25;;;;;;;24.35;24.29;101648.63;4961309;28;20061;-64
2023/06/03 11:42:46;;;;;;;4.47;1.25;;;;;;;24.53;23.56;101644.06;4977340;28;20169;-62
2023/06/03 11:45:16;;;;;;;3.35;1.48;;;;;;;24.73;23.41;101640.19;4962338;28;20145;-65
2023/06/03 11:48:08;;;;;;;6.25;1.40;;;;;;;24.61;22.93;101643.31;4962066;28;20421;-63
2023/06/03 11:50:46;;;;;;;2.13;1.08;;;;;;;24.78;22.89;101638.88;4941821;28;20116;-63
2023/06/03 11:53:40;;;;;;;3.42;1.42;;;;;;;24.71;22.93;101633.28;4960878;28;20044;-64
2023/06/03 11:56:09;;;;;;;3.60;1.20;;;;;;;24.83;22.62;101631.16;4966268;28;20411;-62
2023/06/03 11:58:51;;;;;;;5.88;1.17;;;;;;;24.89;22.33;101636.75;4960629;28;20051;-64
2023/06/03 12:01:21;;;;;;;5.72;1.70;;;;;;;25.00;22.48;101624.88;4953388;28;21261;-63